createdAt,value
2022-09-22T00:01:27.545Z,3.17
2022-09-22T00:03:57.493Z,3.40
2022-09-22T00:06:30.402Z,3.22
2022-09-22T00:09:03.232Z,3.28
2022-09-22T00:11:33.437Z,4.55
2022-09-22T00:14:24.717Z,5.68
2022-09-22T00:17:01.071Z,4.30
2022-09-22T00:19:31.084Z,5.40
2022-09-22T00:21:58.654Z,8.35
2022-09-22T00:24:26.785Z,11.60
2022-09-22T00:26:57.419Z,8.57
2022-09-22T00:32:06.375Z,6.60
2022-09-22T00:34:34.473Z,4.63
2022-09-22T00:39:46.493Z,3.20
2022-09-22T00:42:13.398Z,4.43
2022-09-22T00:44:50.697Z,4.43
2022-09-22T00:47:39.274Z,3.53
2022-09-22T00:50:18.332Z,3.38
2022-09-22T00:52:53.149Z,3.13
2022-09-22T00:55:31.907Z,3.00
2022-09-22T00:58:00.780Z,2.47
2022-09-22T01:00:27.558Z,3.72
2022-09-22T01:02:59.211Z,3.08
2022-09-22T01:05:29.212Z,2.95
2022-09-22T01:07:56.110Z,2.58
2022-09-22T01:10:24.132Z,2.92
2022-09-22T01:13:20.087Z,3.78
2022-09-22T01:18:55.913Z,2.83
2022-09-22T01:21:38.862Z,3.40
2022-09-22T01:24:16.350Z,5.38
2022-09-22T01:27:11.358Z,8.02
2022-09-22T01:29:50.252Z,4.07
2022-09-22T01:32:29.007Z,3.00
2022-09-22T01:35:33.464Z,4.35
2022-09-22T01:40:54.116Z,3.22
2022-09-22T01:43:57.293Z,2.72
2022-09-22T01:46:34.350Z,4.75
2022-09-22T01:49:07.808Z,3.45
2022-09-22T01:51:44.330Z,5.72
2022-09-22T01:54:23.326Z,3.15
2022-09-22T01:56:55.760Z,2.97
2022-09-22T01:59:28.404Z,2.85
2022-09-22T02:02:02.900Z,4.55
2022-09-22T02:04:47.852Z,3.28
2022-09-22T02:07:20.367Z,2.67
2022-09-22T02:09:49.352Z,4.28
2022-09-22T02:12:18.884Z,2.22
2022-09-22T02:14:47.026Z,2.90
2022-09-22T02:17:15.729Z,3.00
2022-09-22T02:19:43.035Z,5.90
2022-09-22T02:22:11.807Z,5.38
2022-09-22T02:24:42.716Z,2.72
2022-09-22T02:29:53.396Z,3.35
2022-09-22T02:32:22.129Z,4.40
2022-09-22T02:34:50.333Z,2.92
2022-09-22T02:37:42.014Z,2.28
2022-09-22T02:40:30.645Z,2.50
2022-09-22T02:43:09.287Z,2.42
2022-09-22T02:45:51.436Z,4.05
2022-09-22T02:48:39.577Z,5.07
2022-09-22T02:51:07.559Z,6.25
2022-09-22T02:53:36.465Z,2.60
2022-09-22T02:56:05.072Z,2.80
2022-09-22T02:58:32.462Z,2.00
2022-09-22T03:00:59.201Z,3.25
2022-09-22T03:03:25.956Z,2.95
2022-09-22T03:05:53.060Z,2.05
2022-09-22T03:08:20.277Z,2.05
2022-09-22T03:10:47.171Z,2.63
2022-09-22T03:19:19.241Z,3.10
2022-09-22T03:24:32.071Z,3.60
2022-09-22T03:26:59.772Z,5.85
2022-09-22T03:29:26.560Z,7.68
2022-09-22T03:31:53.312Z,3.20
2022-09-22T03:34:20.254Z,3.25
2022-09-22T03:36:47.056Z,2.58
2022-09-22T03:41:47.047Z,4.07
2022-09-22T03:44:14.247Z,2.92
2022-09-22T03:49:16.285Z,3.25
2022-09-22T03:57:04.356Z,4.10
2022-09-22T03:59:32.222Z,6.75
2022-09-22T04:02:00.945Z,3.17
2022-09-22T04:07:07.055Z,4.15
2022-09-22T04:12:10.235Z,5.22
2022-09-22T04:24:11.490Z,6.88
2022-09-22T04:26:44.459Z,7.20
2022-09-22T04:29:23.279Z,6.45
2022-09-22T04:37:20.728Z,6.63
2022-09-22T04:42:23.371Z,5.22
2022-09-22T04:47:53.488Z,4.78
2022-09-22T04:53:19.779Z,8.00
2022-09-22T05:05:49.799Z,7.32
2022-09-22T05:08:16.507Z,6.57
2022-09-22T05:13:19.200Z,5.38
2022-09-22T05:15:45.975Z,3.78
2022-09-22T05:18:12.751Z,7.10
2022-09-22T05:26:35.015Z,4.00
2022-09-22T05:29:01.897Z,3.17
2022-09-22T05:31:28.658Z,5.55
2022-09-22T05:33:55.482Z,3.35
2022-09-22T05:36:22.258Z,4.97
2022-09-22T05:38:48.952Z,12.07
2022-09-22T05:41:15.834Z,12.38
2022-09-22T05:43:42.523Z,14.30
2022-09-22T05:46:09.787Z,9.65
2022-09-22T05:48:36.610Z,9.00
2022-09-22T05:51:03.404Z,6.43
2022-09-22T05:53:30.165Z,8.93
2022-09-22T05:56:00.131Z,6.07
2022-09-22T05:58:26.837Z,6.93
2022-09-22T06:00:56.540Z,6.30
2022-09-22T06:03:23.782Z,6.50
2022-09-22T06:05:50.729Z,3.53
2022-09-22T06:08:17.904Z,7.20
2022-09-22T06:10:51.085Z,7.22
2022-09-22T06:13:18.563Z,10.70
2022-09-22T06:15:49.012Z,7.28
2022-09-22T06:18:24.657Z,7.13
2022-09-22T06:20:51.879Z,6.47
2022-09-22T06:23:19.077Z,3.42
2022-09-22T06:25:45.801Z,5.95
2022-09-22T06:28:14.594Z,5.60
2022-09-22T06:30:42.171Z,6.30
2022-09-22T06:33:10.257Z,6.45
2022-09-22T06:35:37.905Z,4.25
2022-09-22T06:38:06.783Z,7.43
2022-09-22T06:40:36.406Z,9.20
2022-09-22T06:43:13.008Z,5.18
2022-09-22T06:45:40.365Z,7.80
2022-09-22T06:48:10.041Z,7.00
2022-09-22T06:50:38.223Z,7.60
2022-09-22T06:53:08.989Z,6.55
2022-09-22T06:55:36.072Z,6.90
2022-09-22T06:58:03.277Z,7.53
2022-09-22T07:00:33.186Z,6.55
2022-09-22T07:03:11.442Z,5.70
2022-09-22T07:05:38.630Z,7.03
2022-09-22T07:08:06.080Z,6.97
2022-09-22T07:10:37.792Z,2.97
2022-09-22T07:13:05.946Z,6.15
2022-09-22T07:15:34.088Z,4.60
2022-09-22T07:18:00.901Z,5.22
2022-09-22T07:20:28.918Z,2.47
2022-09-22T07:23:00.749Z,1.20
2022-09-22T07:25:28.830Z,1.77
2022-09-22T07:28:01.330Z,2.25
2022-09-22T07:30:28.169Z,2.22
2022-09-22T07:32:57.026Z,0.98
2022-09-22T07:35:24.053Z,1.67
2022-09-22T07:38:00.833Z,1.45
2022-09-22T07:40:27.645Z,2.58
2022-09-22T07:42:54.601Z,1.10
2022-09-22T07:45:23.638Z,1.60
2022-09-22T07:48:09.145Z,3.38
2022-09-22T07:50:35.897Z,1.38
2022-09-22T07:53:04.141Z,1.25
2022-09-22T07:55:30.884Z,1.60
2022-09-22T07:57:59.442Z,2.30
2022-09-22T08:00:28.761Z,1.75
2022-09-22T08:02:57.806Z,1.10
2022-09-22T08:05:27.199Z,0.93
2022-09-22T08:07:58.192Z,0.88
2022-09-22T08:10:26.169Z,1.48
2022-09-22T08:12:58.076Z,1.38
2022-09-22T08:15:27.348Z,2.05
2022-09-22T08:18:04.222Z,1.73
2022-09-22T08:20:31.340Z,2.58
2022-09-22T08:22:58.191Z,1.50
2022-09-22T08:25:25.429Z,1.20
2022-09-22T08:27:52.187Z,3.33
2022-09-22T08:30:19.726Z,1.05
2022-09-22T08:32:46.826Z,1.45
2022-09-22T08:35:13.655Z,1.75
2022-09-22T08:37:42.303Z,0.70
2022-09-22T08:40:18.539Z,1.85
2022-09-22T08:42:45.593Z,2.85
2022-09-22T08:45:36.673Z,1.35
2022-09-22T08:48:32.221Z,1.45
2022-09-22T08:51:23.879Z,1.65
2022-09-22T08:53:51.995Z,2.10
2022-09-22T08:56:31.109Z,1.88
2022-09-22T08:59:18.110Z,1.55
2022-09-22T09:01:54.981Z,2.33
2022-09-22T09:04:43.036Z,1.83
2022-09-22T09:07:22.908Z,2.85
2022-09-22T09:10:22.234Z,2.15
2022-09-22T09:13:06.751Z,2.60
2022-09-22T09:15:47.988Z,3.08
2022-09-22T09:18:20.907Z,1.80
2022-09-22T09:20:52.369Z,1.83
2022-09-22T09:25:21.982Z,2.50
2022-09-22T09:26:15.877Z,1.45
2022-09-22T09:28:48.601Z,1.75
2022-09-22T09:31:33.395Z,3.78
2022-09-22T09:34:07.698Z,2.42
2022-09-22T09:36:48.944Z,1.17
2022-09-22T09:39:31.786Z,1.40
2022-09-22T09:42:00.039Z,1.98
2022-09-22T09:44:30.408Z,1.50
2022-09-22T09:46:59.953Z,0.85
2022-09-22T09:49:26.683Z,1.42
2022-09-22T09:51:57.380Z,1.60
2022-09-22T09:54:24.307Z,2.22
2022-09-22T09:57:09.408Z,1.70
2022-09-22T09:59:59.747Z,1.40
2022-09-22T10:02:31.616Z,2.65
2022-09-22T10:05:19.309Z,1.10
2022-09-22T10:07:48.715Z,1.60
2022-09-22T10:10:37.200Z,1.25
2022-09-22T10:13:03.914Z,0.98
2022-09-22T10:15:39.421Z,1.70
2022-09-22T10:18:24.575Z,1.27
2022-09-22T10:21:07.267Z,1.67
2022-09-22T10:23:34.740Z,0.60
2022-09-22T10:26:20.266Z,1.63
2022-09-22T10:29:12.081Z,0.90
2022-09-22T10:31:59.830Z,1.00
2022-09-22T10:37:21.475Z,1.48
2022-09-22T10:39:53.099Z,1.02
2022-09-22T10:42:43.413Z,0.98
2022-09-22T10:45:13.867Z,1.65
2022-09-22T10:48:01.263Z,1.30
2022-09-22T10:50:39.176Z,1.08
2022-09-22T10:53:27.779Z,1.00
2022-09-22T10:56:19.083Z,1.25
2022-09-22T10:58:55.790Z,1.25
2022-09-22T11:01:38.014Z,0.98
2022-09-22T11:04:18.670Z,0.50
2022-09-22T11:07:31.891Z,1.73
2022-09-22T11:10:40.953Z,0.57
2022-09-22T11:13:13.960Z,0.80
2022-09-22T11:15:54.314Z,1.20
2022-09-22T11:18:21.207Z,1.80
2022-09-22T11:21:11.106Z,2.00
2022-09-22T11:24:16.214Z,1.63
2022-09-22T11:26:57.138Z,1.15
2022-09-22T11:29:48.354Z,1.85
2022-09-22T11:33:13.233Z,1.77
2022-09-22T11:35:58.117Z,3.35
2022-09-22T11:38:38.265Z,3.10
2022-09-22T11:41:29.738Z,0.82
2022-09-22T11:44:34.347Z,1.98
2022-09-22T11:47:35.357Z,1.00
2022-09-22T11:50:26.896Z,2.00
2022-09-22T11:53:33.928Z,0.57
2022-09-22T11:56:33.133Z,0.98
2022-09-22T11:59:12.861Z,0.93
2022-09-22T12:01:41.358Z,0.70
2022-09-22T12:04:16.831Z,1.55
2022-09-22T12:06:49.397Z,0.95
2022-09-22T12:09:49.796Z,1.10
2022-09-22T12:12:19.445Z,2.38
2022-09-22T12:14:55.583Z,1.88
2022-09-22T12:17:32.594Z,2.97
2022-09-22T12:20:20.834Z,2.15
2022-09-22T12:23:24.451Z,1.73
2022-09-22T12:25:57.048Z,0.98
2022-09-22T12:28:26.470Z,2.22
2022-09-22T12:31:06.131Z,1.02
2022-09-22T12:33:36.151Z,1.90
2022-09-22T12:36:04.091Z,1.65
2022-09-22T12:38:31.781Z,1.50
2022-09-22T12:41:04.030Z,1.00
2022-09-22T12:43:34.181Z,1.98
2022-09-22T12:46:11.420Z,1.05
2022-09-22T12:48:38.452Z,1.20
2022-09-22T12:51:32.811Z,0.70
2022-09-22T12:54:24.191Z,1.13
2022-09-22T12:59:38.592Z,1.95
2022-09-22T13:02:17.467Z,1.10
2022-09-22T13:04:56.572Z,1.35
2022-09-22T13:07:38.577Z,1.50
2022-09-22T13:10:23.854Z,0.68
2022-09-22T13:13:02.955Z,3.75
2022-09-22T13:15:34.126Z,1.45
2022-09-22T13:18:01.256Z,0.80
2022-09-22T13:20:28.303Z,0.90
2022-09-22T13:23:03.091Z,0.90
2022-09-22T13:25:31.190Z,1.08
2022-09-22T13:28:05.474Z,1.10
2022-09-22T13:30:32.334Z,1.02
2022-09-22T13:32:59.318Z,2.15
2022-09-22T13:35:27.785Z,1.05
2022-09-22T13:37:59.363Z,0.65
2022-09-22T13:40:34.737Z,0.75
2022-09-22T13:43:06.719Z,1.02
2022-09-22T13:45:34.339Z,1.27
2022-09-22T13:48:10.241Z,1.25
2022-09-22T13:50:57.260Z,2.20
2022-09-22T13:53:24.572Z,2.22
2022-09-22T13:55:53.459Z,1.42
2022-09-22T13:58:38.422Z,3.83
2022-09-22T14:01:17.265Z,1.10
2022-09-22T14:03:44.105Z,2.35
2022-09-22T14:06:15.184Z,1.15
2022-09-22T14:08:43.618Z,2.88
2022-09-22T14:11:19.491Z,4.07
2022-09-22T14:13:55.767Z,1.20
2022-09-22T14:16:45.040Z,0.77
2022-09-22T14:19:20.768Z,2.17
2022-09-22T14:21:56.020Z,1.45
2022-09-22T14:24:24.004Z,1.35
2022-09-22T14:27:04.148Z,1.70
2022-09-22T14:29:39.577Z,5.18
2022-09-22T14:32:39.817Z,2.28
2022-09-22T14:35:28.699Z,2.20
2022-09-22T14:38:05.876Z,1.58
2022-09-22T14:40:39.249Z,1.83
2022-09-22T14:43:20.888Z,2.83
2022-09-22T14:46:06.026Z,1.70
2022-09-22T14:48:38.387Z,1.25
2022-09-22T14:51:37.150Z,3.13
2022-09-22T14:54:08.505Z,0.82
2022-09-22T14:56:36.668Z,4.13
2022-09-22T14:59:26.265Z,2.90
2022-09-22T15:02:13.505Z,3.00
2022-09-22T15:04:44.861Z,2.45
2022-09-22T15:07:31.839Z,1.67
2022-09-22T15:10:02.497Z,1.13
2022-09-22T15:12:47.317Z,1.15
2022-09-22T15:15:22.413Z,2.75
2022-09-22T15:18:09.810Z,1.85
2022-09-22T15:20:45.120Z,1.50
2022-09-22T15:23:20.799Z,0.20
2022-09-22T15:25:48.254Z,0.50
2022-09-22T15:28:20.709Z,3.55
2022-09-22T15:30:49.204Z,0.80
2022-09-22T15:33:16.883Z,4.13
2022-09-22T15:36:08.662Z,2.85
2022-09-22T15:38:37.916Z,1.70
2022-09-22T15:41:05.418Z,1.85
2022-09-22T15:43:32.560Z,6.28
2022-09-22T15:46:05.045Z,1.73
2022-09-22T15:48:39.959Z,1.33
2022-09-22T15:51:12.872Z,5.68
2022-09-22T15:53:41.624Z,4.00
2022-09-22T15:56:15.062Z,4.22
2022-09-22T15:58:43.681Z,2.70
2022-09-22T16:01:11.417Z,2.25
2022-09-22T16:03:41.275Z,3.85
2022-09-22T16:06:12.404Z,4.00
2022-09-22T16:08:51.418Z,3.72
2022-09-22T16:11:29.258Z,4.13
2022-09-22T16:13:58.254Z,4.38
2022-09-22T16:16:27.265Z,4.68
2022-09-22T16:18:55.590Z,3.50
2022-09-22T16:21:26.151Z,4.85
2022-09-22T16:24:02.870Z,4.55
2022-09-22T16:26:31.738Z,3.95
2022-09-22T16:28:59.277Z,5.32
2022-09-22T16:31:27.545Z,5.78
2022-09-22T16:33:56.373Z,6.40
2022-09-22T16:36:26.173Z,7.70
2022-09-22T16:38:53.543Z,7.32
2022-09-22T16:41:26.086Z,6.45
2022-09-22T16:43:54.488Z,8.25
2022-09-22T16:46:28.890Z,8.68
2022-09-22T16:49:04.367Z,7.05
2022-09-22T16:51:46.922Z,7.60
2022-09-22T16:54:14.513Z,6.80
2022-09-22T16:56:43.618Z,8.65
2022-09-22T16:59:11.333Z,6.65
2022-09-22T17:01:38.455Z,7.22
2022-09-22T17:04:06.649Z,5.78
2022-09-22T17:06:36.134Z,6.35
2022-09-22T17:09:03.502Z,7.43
2022-09-22T17:11:34.497Z,6.97
2022-09-22T17:14:12.134Z,11.63
2022-09-22T17:16:40.750Z,8.55
2022-09-22T17:19:12.765Z,11.65
2022-09-22T17:21:40.320Z,13.52
2022-09-22T17:24:09.291Z,10.02
2022-09-22T17:26:47.817Z,8.70
2022-09-22T17:29:16.506Z,11.93
2022-09-22T17:31:44.799Z,8.52
2022-09-22T17:34:12.868Z,9.02
2022-09-22T17:36:40.178Z,8.70
2022-09-22T17:39:07.552Z,11.05
2022-09-22T17:41:34.601Z,10.13
2022-09-22T17:44:03.172Z,10.35
2022-09-22T17:46:32.738Z,12.70
2022-09-22T17:49:18.842Z,10.57
2022-09-22T17:52:06.266Z,8.57
2022-09-22T17:54:56.467Z,10.15
2022-09-22T17:57:28.791Z,10.40
2022-09-22T17:59:56.579Z,14.00
2022-09-22T18:02:29.187Z,12.25
2022-09-22T18:04:56.292Z,9.52
2022-09-22T18:07:25.289Z,11.57
2022-09-22T18:09:54.624Z,10.70
2022-09-22T18:12:24.679Z,6.32
2022-09-22T18:14:53.442Z,7.88
2022-09-22T18:17:23.940Z,10.23
2022-09-22T18:19:54.741Z,6.72
2022-09-22T18:22:22.099Z,7.85
2022-09-22T18:24:51.317Z,8.25
2022-09-22T18:27:21.774Z,5.85
2022-09-22T18:29:54.082Z,6.15
2022-09-22T18:32:21.459Z,7.25
2022-09-22T18:34:51.229Z,6.57
2022-09-22T18:37:18.075Z,6.40
2022-09-22T18:39:45.639Z,6.63
2022-09-22T18:42:13.575Z,6.35
2022-09-22T18:44:41.712Z,5.45
2022-09-22T18:47:14.869Z,10.10
2022-09-22T18:49:42.954Z,7.57
2022-09-22T18:52:10.107Z,6.13
2022-09-22T18:54:39.890Z,7.82
2022-09-22T18:57:06.937Z,8.40
2022-09-22T18:59:34.213Z,6.60
2022-09-22T19:02:01.038Z,5.15
2022-09-22T19:04:28.087Z,6.93
2022-09-22T19:07:14.874Z,5.63
2022-09-22T19:09:42.670Z,8.45
2022-09-22T19:12:10.566Z,8.27
2022-09-22T19:14:39.746Z,7.82
2022-09-22T19:17:08.724Z,9.07
2022-09-22T19:19:37.119Z,11.18
2022-09-22T19:22:09.081Z,12.32
2022-09-22T19:24:37.826Z,14.35
2022-09-22T19:27:05.622Z,14.52
2022-09-22T19:29:33.008Z,13.13
2022-09-22T19:32:01.194Z,12.75
2022-09-22T19:34:28.868Z,13.68
2022-09-22T19:36:56.633Z,13.32
2022-09-22T19:39:23.715Z,13.30
2022-09-22T19:41:51.859Z,11.30
2022-09-22T19:44:21.707Z,10.57
2022-09-22T19:46:49.257Z,12.60
2022-09-22T19:49:17.504Z,10.05
2022-09-22T19:51:45.192Z,11.00
2022-09-22T19:54:12.794Z,9.52
2022-09-22T19:56:40.161Z,18.17
2022-09-22T19:59:09.696Z,10.70
2022-09-22T20:01:40.306Z,8.00
2022-09-22T20:04:12.631Z,8.32
2022-09-22T20:06:39.464Z,8.93
2022-09-22T20:09:06.331Z,7.75
2022-09-22T20:11:42.071Z,7.93
2022-09-22T20:14:21.020Z,6.95
2022-09-22T20:16:53.029Z,7.65
2022-09-22T20:19:21.183Z,6.25
2022-09-22T20:21:49.688Z,4.90
2022-09-22T20:24:19.651Z,7.43
2022-09-22T20:26:47.125Z,6.95
2022-09-22T20:29:15.851Z,5.53
2022-09-22T20:31:43.631Z,4.70
2022-09-22T20:34:14.203Z,5.03
2022-09-22T20:36:43.207Z,4.22
2022-09-22T20:39:13.688Z,6.50
2022-09-22T20:41:41.621Z,3.88
2022-09-22T20:44:14.827Z,3.92
2022-09-22T20:46:42.635Z,3.65
2022-09-22T20:49:13.445Z,4.95
2022-09-22T20:51:40.947Z,7.07
2022-09-22T20:54:07.846Z,4.20
2022-09-22T20:56:37.445Z,5.05
2022-09-22T20:59:07.645Z,4.93
2022-09-22T21:01:34.885Z,3.45
2022-09-22T21:04:01.918Z,3.17
2022-09-22T21:06:28.768Z,4.82
2022-09-22T21:09:13.941Z,4.07
2022-09-22T21:11:40.671Z,4.43
2022-09-22T21:14:07.953Z,9.82
2022-09-22T21:16:37.179Z,8.57
2022-09-22T21:19:04.374Z,11.45
2022-09-22T21:21:32.828Z,8.35
2022-09-22T21:24:03.053Z,11.65
2022-09-22T21:26:30.972Z,11.55
2022-09-22T21:28:59.411Z,11.77
2022-09-22T21:31:27.075Z,11.07
2022-09-22T21:33:54.316Z,8.75
2022-09-22T21:36:22.672Z,11.10
2022-09-22T21:38:55.125Z,9.63
2022-09-22T21:41:23.799Z,4.97
2022-09-22T21:43:51.462Z,3.97
2022-09-22T21:46:21.420Z,5.40
2022-09-22T21:48:48.545Z,5.05
2022-09-22T21:51:20.473Z,4.45
2022-09-22T21:53:50.585Z,3.20
2022-09-22T21:56:19.285Z,5.15
2022-09-22T21:58:48.609Z,2.55
2022-09-22T22:01:19.623Z,2.60
2022-09-22T22:03:48.908Z,2.42
2022-09-22T22:06:23.835Z,2.70
2022-09-22T22:08:53.204Z,4.63
2022-09-22T22:11:22.646Z,5.43
2022-09-22T22:13:54.677Z,4.57
2022-09-22T22:16:24.048Z,4.38
2022-09-22T22:18:51.594Z,2.58
2022-09-22T22:21:21.326Z,2.88
2022-09-22T22:23:50.175Z,3.85
2022-09-22T22:26:25.554Z,2.50
2022-09-22T22:28:53.050Z,2.97
2022-09-22T22:31:22.854Z,2.88
2022-09-22T22:33:50.281Z,2.95
2022-09-22T22:36:18.542Z,3.08
2022-09-22T22:38:45.738Z,2.95
2022-09-22T22:41:15.209Z,2.55
2022-09-22T22:43:43.208Z,2.38
2022-09-22T22:46:16.614Z,2.35
2022-09-22T22:48:43.948Z,2.42
2022-09-22T22:51:19.146Z,4.10
2022-09-22T22:53:45.898Z,2.95
2022-09-22T22:56:16.363Z,3.55
2022-09-22T22:58:44.981Z,4.65
2022-09-22T23:01:16.072Z,2.75
2022-09-22T23:03:49.189Z,4.38
2022-09-22T23:06:19.037Z,2.45
2022-09-22T23:08:46.315Z,2.63
2022-09-22T23:11:23.190Z,2.58
2022-09-22T23:13:51.941Z,2.00
2022-09-22T23:16:24.122Z,3.85
2022-09-22T23:18:52.419Z,3.20
2022-09-22T23:21:21.434Z,2.92
2022-09-22T23:23:49.225Z,2.78
2022-09-22T23:26:17.909Z,4.55
2022-09-22T23:28:45.358Z,4.70
2022-09-22T23:31:18.092Z,7.10
2022-09-22T23:33:46.632Z,6.18
2022-09-22T23:36:18.787Z,6.88
2022-09-22T23:38:46.540Z,10.00
2022-09-22T23:41:14.111Z,6.07
2022-09-22T23:43:41.241Z,5.32
2022-09-22T23:46:08.019Z,3.67
2022-09-22T23:48:36.159Z,3.72
2022-09-22T23:51:03.901Z,4.22
2022-09-22T23:53:36.668Z,3.55
2022-09-22T23:56:05.627Z,3.35
2022-09-22T23:58:32.795Z,2.58
